Time;durP1;ratioP1;P1;durP2;ratioP2;P2;SDS_P1;SDS_P2;PMS_P1;PMS_P2;Temp;Humidity;BMP_temperature;BMP_pressure;BME280_temperature;BME280_humidity;BME280_pressure;Samples;Min_cycle;Max_cycle;Signal;HPM_P1;HPM_P2
2022/08/21 00:00:12;;;;;;;3.15;1.80;;;;;;;19.30;54.53;99590.84;349975;28;1266;-65
2022/08/21 00:00:27;;;;;;;3.50;1.85;;;;;;;19.31;54.68;99587.25;350390;28;1109;-64
2022/08/21 00:00:39;;;;;;;3.95;1.90;;;;;;;19.33;54.39;99590.63;349087;28;1617;-65
2022/08/21 00:00:55;;;;;;;3.67;1.83;;;;;;;19.33;54.26;99590.63;348993;28;1139;-64
2022/08/21 00:01:25;;;;;;;3.30;1.80;;;;;;;19.28;54.58;99584.84;347269;28;1276;-66
2022/08/21 00:01:37;;;;;;;2.70;1.90;;;;;;;19.28;54.82;99584.00;347633;28;1228;-64
2022/08/21 00:01:49;;;;;;;3.00;1.85;;;;;;;19.29;54.84;99585.69;346452;28;1142;-64
2022/08/21 00:02:01;;;;;;;2.60;1.60;;;;;;;19.29;54.86;99596.22;346964;28;1246;-64
2022/08/21 00:02:19;;;;;;;2.70;1.60;;;;;;;19.27;55.26;99588.41;347781;28;1097;-65
2022/08/21 00:02:31;;;;;;;2.88;1.63;;;;;;;19.27;55.36;99595.47;346530;28;1101;-65
2022/08/21 00:03:05;;;;;;;2.75;1.73;;;;;;;19.26;55.15;99593.81;346283;28;1188;-65
2022/08/21 00:03:17;;;;;;;2.85;1.80;;;;;;;19.27;55.03;99593.69;346156;28;1030;-65
2022/08/21 00:03:29;;;;;;;2.65;1.80;;;;;;;19.27;55.01;99587.56;346123;28;1019;-65
2022/08/21 00:03:41;;;;;;;2.63;1.73;;;;;;;19.28;55.01;99591.91;346329;28;1226;-64
2022/08/21 00:03:54;;;;;;;2.55;1.70;;;;;;;19.28;55.09;99589.28;347432;28;1053;-65
2022/08/21 00:04:07;;;;;;;3.00;1.80;;;;;;;19.26;55.17;99592.00;347787;28;1082;-65
2022/08/21 00:04:19;;;;;;;3.85;1.80;;;;;;;19.26;55.26;99585.91;347469;28;1011;-64
2022/08/21 00:04:33;;;;;;;3.80;1.80;;;;;;;19.24;55.25;99588.66;347451;28;1192;-64
2022/08/21 00:04:46;;;;;;;3.15;1.88;;;;;;;19.24;55.15;99588.66;347618;28;1250;-64
2022/08/21 00:05:08;;;;;;;3.80;2.10;;;;;;;19.25;55.06;99592.13;346803;28;1603;-65
2022/08/21 00:05:22;;;;;;;4.15;2.10;;;;;;;19.24;55.05;99585.16;347617;28;1042;-65
2022/08/21 00:05:39;;;;;;;3.67;1.98;;;;;;;19.23;55.18;99586.09;347563;28;1321;-65
2022/08/21 00:05:51;;;;;;;2.78;1.83;;;;;;;19.24;55.12;99587.81;347615;28;1058;-65
2022/08/21 00:06:03;;;;;;;2.65;1.80;;;;;;;19.23;55.11;99586.09;346534;28;1608;-65
2022/08/21 00:06:16;;;;;;;3.65;1.90;;;;;;;19.23;55.17;99584.31;346750;28;2016;-66
2022/08/21 00:06:28;;;;;;;3.85;1.90;;;;;;;19.24;55.35;99587.81;347478;28;1133;-65
2022/08/21 00:06:40;;;;;;;3.67;1.92;;;;;;;19.22;55.63;99592.34;348882;28;1072;-64
2022/08/21 00:06:52;;;;;;;3.80;1.80;;;;;;;19.21;55.68;99588.00;349317;28;1074;-64
2022/08/21 00:07:04;;;;;;;3.92;1.73;;;;;;;19.21;55.64;99585.38;347985;28;1967;-65
2022/08/21 00:07:18;;;;;;;4.50;1.80;;;;;;;19.22;55.63;99589.72;348341;28;2396;-64
2022/08/21 00:07:31;;;;;;;4.00;1.88;;;;;;;19.20;55.50;99592.44;348912;28;1106;-64
2022/08/21 00:07:43;;;;;;;3.72;1.70;;;;;;;19.21;55.49;99583.56;348728;28;1603;-65
2022/08/21 00:07:56;;;;;;;3.53;1.77;;;;;;;19.22;55.13;99584.44;348877;28;1396;-65
2022/08/21 00:08:09;;;;;;;3.03;1.83;;;;;;;19.24;55.30;99582.53;349170;28;1354;-65
2022/08/21 00:08:20;;;;;;;2.92;1.90;;;;;;;19.25;55.28;99585.03;348899;28;1089;-65
2022/08/21 00:08:33;;;;;;;3.28;1.98;;;;;;;19.28;55.22;99586.66;348917;28;1092;-65
2022/08/21 00:08:48;;;;;;;3.20;1.80;;;;;;;19.30;55.03;99588.22;348293;28;2069;-65
2022/08/21 00:09:00;;;;;;;3.53;1.90;;;;;;;19.32;54.74;99591.59;348790;28;1372;-64
2022/08/21 00:09:19;;;;;;;3.20;1.83;;;;;;;19.33;54.61;99587.97;347916;28;1226;-64
2022/08/21 00:09:31;;;;;;;2.65;1.70;;;;;;;19.35;54.41;99579.97;346697;28;1618;-65
2022/08/21 00:09:43;;;;;;;2.53;1.70;;;;;;;19.35;54.25;99585.25;347182;28;1369;-65
2022/08/21 00:09:55;;;;;;;2.72;1.75;;;;;;;19.35;54.11;99590.53;347446;28;1264;-65
2022/08/21 00:10:08;;;;;;;3.15;1.92;;;;;;;19.34;54.29;99578.31;347273;28;1188;-65
2022/08/21 00:10:20;;;;;;;3.33;1.90;;;;;;;19.35;54.32;99590.53;347794;28;1059;-64
2022/08/21 00:10:35;;;;;;;2.95;1.77;;;;;;;19.33;54.20;99581.88;348846;28;1199;-65
2022/08/21 00:10:48;;;;;;;2.42;1.70;;;;;;;19.29;54.63;99577.78;349239;28;1189;-63
2022/08/21 00:11:00;;;;;;;2.97;1.80;;;;;;;19.30;54.44;99582.09;349031;28;1512;-63
2022/08/21 00:11:12;;;;;;;2.80;1.80;;;;;;;19.31;54.17;99583.78;347249;28;1235;-63
2022/08/21 00:11:27;;;;;;;2.55;1.85;;;;;;;19.31;54.40;99578.50;347546;28;1190;-63
2022/08/21 00:11:41;;;;;;;2.33;1.90;;;;;;;19.30;54.14;99582.09;348960;28;1574;-63
2022/08/21 00:11:53;;;;;;;2.67;1.83;;;;;;;19.27;53.76;99584.94;349048;28;1314;-63
2022/08/21 00:12:06;;;;;;;3.13;1.90;;;;;;;19.28;53.98;99579.56;348869;28;1618;-63
2022/08/21 00:12:18;;;;;;;3.45;1.83;;;;;;;19.27;54.08;99582.31;348858;28;1006;-63
2022/08/21 00:12:31;;;;;;;4.65;1.83;;;;;;;19.24;54.13;99578.09;348169;28;1741;-63
2022/08/21 00:12:43;;;;;;;4.55;1.80;;;;;;;19.27;53.93;99577.88;348980;28;1261;-62
2022/08/21 00:12:55;;;;;;;4.75;1.85;;;;;;;19.25;53.57;99578.94;349056;28;1910;-62
2022/08/21 00:13:08;;;;;;;3.20;1.90;;;;;;;19.25;53.76;99578.94;349019;28;1343;-62
2022/08/21 00:13:20;;;;;;;2.78;1.90;;;;;;;19.25;53.63;99573.66;349114;28;1301;-62
2022/08/21 00:13:33;;;;;;;2.15;1.80;;;;;;;19.24;53.49;99579.91;349276;28;1317;-63
2022/08/21 00:13:45;;;;;;;2.53;1.80;;;;;;;19.21;53.62;99575.66;349052;28;1070;-63
2022/08/21 00:13:57;;;;;;;2.90;1.90;;;;;;;19.20;53.63;99576.63;348965;28;1375;-64
2022/08/21 00:14:10;;;;;;;3.58;2.00;;;;;;;19.18;53.62;99578.53;348867;28;1193;-65
2022/08/21 00:14:22;;;;;;;4.00;1.95;;;;;;;19.18;53.70;99575.06;347483;28;1844;-64
2022/08/21 00:14:35;;;;;;;4.78;1.80;;;;;;;19.16;53.70;99578.63;348358;28;1070;-64
2022/08/21 00:14:47;;;;;;;4.97;1.90;;;;;;;19.14;53.64;99583.16;347719;28;1131;-63
2022/08/21 00:14:59;;;;;;;3.97;1.83;;;;;;;19.12;53.63;99577.16;348245;28;1911;-63
2022/08/21 00:15:16;;;;;;;2.70;1.85;;;;;;;19.06;53.78;99574.13;349030;28;1038;-63
2022/08/21 00:15:30;;;;;;;3.00;1.80;;;;;;;19.05;53.78;99573.25;349036;28;1082;-64
2022/08/21 00:15:43;;;;;;;2.80;1.98;;;;;;;19.03;53.91;99575.16;349098;28;1171;-64
2022/08/21 00:15:55;;;;;;;3.47;2.03;;;;;;;19.04;53.85;99579.47;348185;28;1844;-64
2022/08/21 00:16:07;;;;;;;3.45;1.90;;;;;;;19.03;53.82;99579.59;347783;28;1562;-64
2022/08/21 00:16:19;;;;;;;3.13;1.90;;;;;;;19.01;53.80;99577.03;349289;28;1077;-64
2022/08/21 00:16:31;;;;;;;2.92;1.95;;;;;;;18.99;53.81;99573.66;348852;28;1090;-64
2022/08/21 00:16:44;;;;;;;3.42;2.15;;;;;;;18.96;54.15;99579.16;349145;28;1113;-65
2022/08/21 00:16:56;;;;;;;3.60;1.95;;;;;;;18.94;53.99;99581.91;348820;28;1474;-65
2022/08/21 00:17:11;;;;;;;3.40;1.95;;;;;;;18.92;54.00;99580.31;347417;28;1442;-64
2022/08/21 00:17:23;;;;;;;3.25;1.92;;;;;;;18.88;54.16;99576.22;347567;28;1132;-64
2022/08/21 00:17:35;;;;;;;3.80;2.00;;;;;;;18.88;54.26;99577.06;347379;28;1212;-65
2022/08/21 00:17:47;;;;;;;3.58;2.10;;;;;;;18.87;54.29;99574.50;349056;28;1136;-65
2022/08/21 00:17:59;;;;;;;3.35;2.20;;;;;;;18.85;54.43;99576.41;347812;28;1352;-63
2022/08/21 00:18:12;;;;;;;3.00;2.10;;;;;;;18.82;54.35;99580.09;346071;28;1024;-62
2022/08/21 00:18:24;;;;;;;3.42;2.08;;;;;;;18.76;54.67;99576.06;346142;28;1027;-62
2022/08/21 00:18:37;;;;;;;3.40;1.98;;;;;;;18.76;54.75;99578.69;346429;28;1046;-62
2022/08/21 00:18:49;;;;;;;3.95;1.90;;;;;;;18.76;54.69;99577.84;346324;28;1049;-63
2022/08/21 00:19:01;;;;;;;6.18;2.10;;;;;;;18.70;54.90;99579.09;349344;28;1312;-64
2022/08/21 00:19:13;;;;;;;5.53;2.10;;;;;;;18.68;54.83;99573.09;349695;28;1255;-64
2022/08/21 00:19:26;;;;;;;2.97;1.98;;;;;;;18.69;54.95;99581.84;349052;28;1272;-64
2022/08/21 00:19:39;;;;;;;3.88;1.98;;;;;;;18.67;54.92;99579.34;348932;28;1010;-64
2022/08/21 00:19:51;;;;;;;3.92;2.05;;;;;;;18.64;54.83;99578.69;348664;28;1607;-64
2022/08/21 00:20:06;;;;;;;4.38;2.13;;;;;;;18.64;55.04;99579.53;350081;28;1329;-64
2022/08/21 00:20:18;;;;;;;3.83;2.00;;;;;;;18.59;55.13;99575.50;350356;28;1246;-65
2022/08/21 00:20:32;;;;;;;4.00;2.05;;;;;;;18.53;55.33;99579.38;350120;28;1070;-64
2022/08/21 00:20:46;;;;;;;4.95;2.10;;;;;;;18.50;55.40;99575.19;350240;28;1708;-65
2022/08/21 00:20:58;;;;;;;4.40;2.10;;;;;;;18.46;55.55;99576.34;348293;28;1707;-62
2022/08/21 00:21:12;;;;;;;2.92;1.90;;;;;;;18.43;55.75;99580.94;348536;28;1034;-62
2022/08/21 00:21:25;;;;;;;2.72;1.95;;;;;;;18.41;55.56;99577.56;348867;28;950;-63
2022/08/21 00:21:37;;;;;;;3.22;2.03;;;;;;;18.42;55.44;99579.28;348708;28;1263;-63
2022/08/21 00:21:49;;;;;;;3.00;2.03;;;;;;;18.42;55.59;99571.38;348002;28;1109;-62
2022/08/21 00:22:01;;;;;;;2.78;2.00;;;;;;;18.41;55.75;99574.94;348396;28;1288;-63
2022/08/21 00:22:13;;;;;;;3.30;2.00;;;;;;;18.37;55.87;99571.66;348970;28;1262;-63
2022/08/21 00:22:25;;;;;;;4.50;2.00;;;;;;;18.34;55.76;99571.88;348888;28;1055;-63
2022/08/21 00:22:37;;;;;;;4.28;2.05;;;;;;;18.35;55.76;99578.81;347863;28;1817;-63
2022/08/21 00:22:49;;;;;;;3.38;2.10;;;;;;;18.36;55.75;99570.00;348585;28;1891;-63
2022/08/21 00:23:02;;;;;;;2.92;1.95;;;;;;;18.32;56.00;99579.03;348946;28;1315;-63
2022/08/21 00:23:14;;;;;;;3.00;2.03;;;;;;;18.32;55.92;99573.78;349017;28;1010;-63
2022/08/21 00:23:26;;;;;;;3.42;2.20;;;;;;;18.30;55.85;99570.41;348992;28;1288;-63
2022/08/21 00:23:39;;;;;;;5.03;2.00;;;;;;;18.32;55.89;99579.03;348984;28;1163;-64
2022/08/21 00:23:51;;;;;;;4.75;1.80;;;;;;;18.33;55.90;99568.41;349010;28;1323;-64
2022/08/21 00:24:04;;;;;;;2.42;1.73;;;;;;;18.33;55.96;99572.81;349141;28;1070;-64
2022/08/21 00:24:19;;;;;;;3.08;1.80;;;;;;;18.32;55.83;99579.03;349033;28;963;-65
2022/08/21 00:24:31;;;;;;;3.15;1.90;;;;;;;18.31;55.92;99561.53;349233;28;1175;-65
2022/08/21 00:24:43;;;;;;;3.45;2.03;;;;;;;18.29;56.04;99566.94;347234;28;1763;-63
2022/08/21 00:24:55;;;;;;;3.22;2.00;;;;;;;18.27;56.22;99574.09;348017;28;1429;-63
2022/08/21 00:25:08;;;;;;;2.92;1.92;;;;;;;18.27;56.09;99575.84;349062;28;1285;-63
2022/08/21 00:25:20;;;;;;;2.88;1.90;;;;;;;18.25;56.18;99572.47;349167;28;1183;-62
2022/08/21 00:25:37;;;;;;;3.38;1.98;;;;;;;18.26;56.26;99571.56;348436;28;1062;-63
2022/08/21 00:25:49;;;;;;;4.10;2.30;;;;;;;18.26;56.17;99568.91;348674;28;1317;-63
2022/08/21 00:26:01;;;;;;;3.97;2.30;;;;;;;18.21;56.35;99569.22;348991;28;1182;-64
2022/08/21 00:26:13;;;;;;;3.58;2.28;;;;;;;18.21;56.42;99571.00;348238;28;1719;-64
2022/08/21 00:26:26;;;;;;;2.40;2.10;;;;;;;18.19;56.53;99571.13;349067;28;1033;-64
2022/08/21 00:26:38;;;;;;;2.97;2.05;;;;;;;18.18;56.47;99569.41;348977;28;1235;-64
2022/08/21 00:26:51;;;;;;;3.13;1.90;;;;;;;18.18;56.64;99566.78;349116;28;1298;-64
2022/08/21 00:27:03;;;;;;;2.70;1.77;;;;;;;18.18;56.56;99572.03;348606;28;1410;-64
2022/08/21 00:27:15;;;;;;;2.55;1.80;;;;;;;18.19;56.52;99570.25;348949;28;1086;-64
2022/08/21 00:27:27;;;;;;;2.88;2.00;;;;;;;18.18;56.55;99569.41;348665;28;1229;-64
2022/08/21 00:27:42;;;;;;;2.97;2.00;;;;;;;18.15;56.56;99572.25;349093;28;1101;-64
2022/08/21 00:27:55;;;;;;;2.53;1.90;;;;;;;18.16;56.63;99573.94;349180;28;1090;-65
2022/08/21 00:28:07;;;;;;;2.78;1.90;;;;;;;18.16;56.57;99568.66;347739;28;1065;-64
2022/08/21 00:28:19;;;;;;;3.30;2.00;;;;;;;18.17;56.50;99565.13;347455;28;1074;-64
2022/08/21 00:28:32;;;;;;;4.00;2.10;;;;;;;18.17;56.45;99570.38;347830;28;1135;-63
2022/08/21 00:28:45;;;;;;;4.10;2.00;;;;;;;18.20;56.43;99564.91;347809;28;1058;-63
2022/08/21 00:28:57;;;;;;;3.20;2.00;;;;;;;18.20;56.60;99570.16;347894;28;1183;-64
2022/08/21 00:29:09;;;;;;;2.22;1.80;;;;;;;18.20;56.46;99570.16;347844;28;1039;-64
2022/08/21 00:29:21;;;;;;;2.88;1.73;;;;;;;18.21;56.38;99566.59;347855;28;1155;-64
2022/08/21 00:29:33;;;;;;;2.80;1.63;;;;;;;18.22;56.47;99557.75;347809;28;1300;-64
2022/08/21 00:29:45;;;;;;;1.95;1.70;;;;;;;18.25;56.34;99572.47;347513;28;1036;-64
2022/08/21 00:29:57;;;;;;;4.45;2.00;;;;;;;18.27;56.42;99571.47;348080;28;1607;-64
2022/08/21 00:30:11;;;;;;;4.80;2.17;;;;;;;18.29;56.43;99569.56;348636;28;1015;-63
2022/08/21 00:30:34;;;;;;;3.13;2.05;;;;;;;18.32;56.40;99569.34;349026;28;1022;-63
2022/08/21 00:30:46;;;;;;;3.05;1.98;;;;;;;18.32;56.26;99568.50;347809;28;1187;-63
2022/08/21 00:30:59;;;;;;;3.10;2.10;;;;;;;18.34;56.12;99572.72;348185;28;1286;-63
2022/08/21 00:31:11;;;;;;;2.83;1.98;;;;;;;18.35;56.21;99569.16;348563;28;1163;-63
2022/08/21 00:31:23;;;;;;;2.70;2.00;;;;;;;18.35;56.15;99571.78;348913;28;1190;-64
2022/08/21 00:31:36;;;;;;;2.67;1.90;;;;;;;18.33;56.16;99571.06;349094;28;1062;-64
2022/08/21 00:31:48;;;;;;;2.50;1.83;;;;;;;18.36;56.13;99570.00;349115;28;1066;-64
2022/08/21 00:31:59;;;;;;;3.28;2.03;;;;;;;18.37;55.91;99569.03;348737;28;1391;-63
2022/08/21 00:32:11;;;;;;;3.05;2.00;;;;;;;18.35;56.04;99569.16;348699;28;1242;-64
2022/08/21 00:32:26;;;;;;;4.97;1.98;;;;;;;18.36;56.03;99570.81;349013;28;1312;-64
2022/08/21 00:32:39;;;;;;;4.60;1.85;;;;;;;18.38;55.98;99567.28;348730;28;1037;-64
2022/08/21 00:32:53;;;;;;;3.28;1.90;;;;;;;18.35;55.94;99571.78;348897;28;1046;-65
2022/08/21 00:33:06;;;;;;;3.70;2.05;;;;;;;18.32;56.18;99569.34;348877;28;1069;-64
2022/08/21 00:33:18;;;;;;;3.15;1.95;;;;;;;18.33;56.22;99576.31;348960;28;1082;-64
2022/08/21 00:33:31;;;;;;;3.03;1.98;;;;;;;18.33;56.15;99576.31;348334;28;1565;-64
2022/08/21 00:33:43;;;;;;;3.10;2.00;;;;;;;18.34;56.12;99572.72;348664;28;1831;-65
2022/08/21 00:33:55;;;;;;;3.58;2.10;;;;;;;18.34;56.16;99569.25;349049;28;1634;-64
2022/08/21 00:34:13;;;;;;;3.90;2.10;;;;;;;18.32;56.68;99566.72;346459;28;975;-63
2022/08/21 00:34:24;;;;;;;4.45;2.20;;;;;;;18.33;56.90;99570.19;346063;28;1180;-63
2022/08/21 00:34:36;;;;;;;4.60;2.17;;;;;;;18.33;56.85;99571.06;346100;28;1562;-63
2022/08/21 00:34:49;;;;;;;4.13;2.10;;;;;;;18.34;56.55;99570.09;346152;28;1428;-62
2022/08/21 00:35:01;;;;;;;3.22;2.08;;;;;;;18.36;56.46;99568.19;346863;28;1402;-63
2022/08/21 00:35:17;;;;;;;2.30;1.95;;;;;;;18.37;56.45;99571.66;347408;28;1161;-63
2022/08/21 00:35:33;;;;;;;2.95;1.80;;;;;;;18.38;56.60;99572.53;347341;28;1070;-65
2022/08/21 00:35:45;;;;;;;3.30;1.90;;;;;;;18.39;56.58;99568.94;347479;28;1062;-64
2022/08/21 00:35:57;;;;;;;2.92;1.90;;;;;;;18.40;56.64;99570.63;347566;28;1395;-64
2022/08/21 00:36:10;;;;;;;2.47;1.73;;;;;;;18.38;56.84;99572.53;348221;28;1106;-64
2022/08/21 00:36:22;;;;;;;1.98;1.75;;;;;;;18.37;56.77;99571.66;348988;28;1069;-64
2022/08/21 00:36:35;;;;;;;3.05;1.88;;;;;;;18.35;56.87;99574.41;349053;28;1181;-65
2022/08/21 00:36:47;;;;;;;4.55;2.10;;;;;;;18.33;57.10;99575.44;348998;28;1062;-63
2022/08/21 00:36:59;;;;;;;4.57;2.10;;;;;;;18.33;56.95;99568.41;349166;28;1325;-63
2022/08/21 00:37:11;;;;;;;2.88;2.00;;;;;;;18.35;56.86;99569.16;347901;28;1664;-63
2022/08/21 00:37:24;;;;;;;2.75;2.00;;;;;;;18.38;56.78;99567.28;348992;28;1320;-63
2022/08/21 00:37:36;;;;;;;2.90;2.00;;;;;;;18.36;57.13;99570.81;349045;28;1164;-64
2022/08/21 00:37:48;;;;;;;2.63;1.90;;;;;;;18.35;57.37;99574.41;348939;28;2560;-65
2022/08/21 00:38:02;;;;;;;2.70;1.80;;;;;;;18.38;56.93;99572.53;348994;28;1324;-65
2022/08/21 00:38:14;;;;;;;2.40;1.77;;;;;;;18.39;57.08;99571.56;349007;28;1168;-65
2022/08/21 00:38:26;;;;;;;2.47;1.80;;;;;;;18.38;57.26;99569.91;347663;28;2109;-65
2022/08/21 00:38:38;;;;;;;3.83;2.03;;;;;;;18.38;57.10;99567.28;348123;28;1685;-63
2022/08/21 00:38:50;;;;;;;4.78;2.00;;;;;;;18.33;57.53;99568.41;348274;28;1701;-63
2022/08/21 00:39:04;;;;;;;5.10;1.90;;;;;;;18.33;57.65;99565.78;347768;28;1855;-62
2022/08/21 00:39:16;;;;;;;4.13;1.80;;;;;;;18.35;57.31;99574.41;348266;28;1886;-63
2022/08/21 00:39:28;;;;;;;2.97;1.90;;;;;;;18.36;57.21;99565.56;349076;28;1310;-63
2022/08/21 00:39:40;;;;;;;3.75;1.90;;;;;;;18.39;56.98;99575.06;348656;28;2047;-63
2022/08/21 00:39:53;;;;;;;3.25;1.80;;;;;;;18.41;57.03;99572.31;349058;28;1077;-62
2022/08/21 00:40:07;;;;;;;3.13;1.90;;;;;;;18.42;56.76;99568.75;347824;28;2065;-62
2022/08/21 00:40:24;;;;;;;3.10;2.10;;;;;;;18.43;56.81;99571.28;348680;28;2073;-63
2022/08/21 00:40:48;;;;;;;3.40;2.15;;;;;;;18.45;56.91;99571.16;347758;28;1054;-63
2022/08/21 00:41:03;;;;;;;2.90;2.00;;;;;;;18.47;56.51;99569.28;348471;28;1658;-63
2022/08/21 00:41:28;;;;;;;2.53;2.15;;;;;;;18.47;56.34;99569.28;390568;22;2158;-62
2022/08/21 00:41:49;;;;;;;2.70;2.00;;;;;;;18.45;56.87;99573.78;345206;28;2004;-62
2022/08/21 00:42:01;;;;;;;3.30;2.08;;;;;;;18.42;56.71;99571.38;346084;28;2099;-62
2022/08/21 00:42:14;;;;;;;3.15;2.22;;;;;;;18.42;56.85;99574.84;346304;28;1245;-63
2022/08/21 00:42:30;;;;;;;2.53;2.22;;;;;;;18.38;56.70;99568.09;346534;28;1027;-63
2022/08/21 00:42:43;;;;;;;3.15;2.15;;;;;;;18.39;56.59;99564.53;345521;28;1632;-63
2022/08/21 00:43:07;;;;;;;3.53;1.90;;;;;;;18.41;56.74;99567.06;346546;28;1398;-63
2022/08/21 00:43:27;;;;;;;3.10;1.90;;;;;;;18.41;56.44;99569.69;346312;28;1174;-63
2022/08/21 00:43:40;;;;;;;3.08;1.90;;;;;;;18.41;56.23;99569.69;345649;28;1128;-63
2022/08/21 00:43:52;;;;;;;2.67;2.03;;;;;;;18.41;56.21;99561.78;344621;28;2307;-63
2022/08/21 00:44:09;;;;;;;2.75;2.10;;;;;;;18.40;56.36;99568.00;347019;28;1701;-63
2022/08/21 00:44:21;;;;;;;3.97;2.05;;;;;;;18.39;56.22;99568.94;345565;28;1351;-63
2022/08/21 00:44:33;;;;;;;5.30;2.00;;;;;;;18.40;56.38;99570.63;345308;28;1830;-62
2022/08/21 00:44:48;;;;;;;5.32;2.10;;;;;;;18.40;56.34;99570.63;346502;28;1226;-63
2022/08/21 00:45:00;;;;;;;4.03;2.08;;;;;;;18.41;56.42;99567.06;345689;28;2263;-63
2022/08/21 00:45:13;;;;;;;3.05;1.90;;;;;;;18.42;56.17;99571.38;346438;28;1957;-62
2022/08/21 00:45:27;;;;;;;3.30;1.98;;;;;;;18.41;56.17;99573.19;346309;28;1086;-63
2022/08/21 00:45:39;;;;;;;4.35;2.00;;;;;;;18.41;56.11;99569.69;346316;28;1006;-63
2022/08/21 00:45:53;;;;;;;4.30;1.95;;;;;;;18.39;56.05;99569.81;346471;28;1101;-63
2022/08/21 00:46:06;;;;;;;3.63;2.00;;;;;;;18.39;56.31;99568.94;345294;28;2217;-63
2022/08/21 00:46:18;;;;;;;4.10;1.92;;;;;;;18.39;56.28;99569.81;345763;28;1857;-63
2022/08/21 00:46:30;;;;;;;5.88;2.00;;;;;;;18.38;56.31;99572.53;346469;28;1014;-63
2022/08/21 00:46:43;;;;;;;5.25;2.00;;;;;;;18.33;56.39;99568.41;346448;28;1018;-63
2022/08/21 00:46:55;;;;;;;3.05;1.85;;;;;;;18.34;56.41;99567.47;346400;28;1200;-63
2022/08/21 00:47:08;;;;;;;3.28;1.95;;;;;;;18.34;56.44;99567.47;345171;28;2461;-62
2022/08/21 00:47:20;;;;;;;3.17;2.00;;;;;;;18.33;56.71;99560.53;346356;28;1941;-62
2022/08/21 00:47:32;;;;;;;2.88;1.95;;;;;;;18.34;56.65;99566.63;346544;28;1069;-62
2022/08/21 00:47:44;;;;;;;2.88;2.08;;;;;;;18.33;56.63;99571.06;346291;28;1204;-62
2022/08/21 00:47:56;;;;;;;3.78;2.17;;;;;;;18.32;56.76;99569.34;346447;28;1349;-62
2022/08/21 00:48:08;;;;;;;3.65;2.13;;;;;;;18.33;56.78;99565.78;345175;28;2315;-63
2022/08/21 00:48:21;;;;;;;2.60;1.92;;;;;;;18.34;56.87;99567.47;345918;28;1591;-63
2022/08/21 00:48:33;;;;;;;3.15;1.90;;;;;;;18.31;57.09;99562.41;346314;28;1236;-63
2022/08/21 00:48:45;;;;;;;4.68;2.08;;;;;;;18.30;57.26;99568.59;346493;28;1092;-63
2022/08/21 00:48:57;;;;;;;4.53;2.10;;;;;;;18.30;57.04;99565.97;346394;28;1293;-63
2022/08/21 00:49:11;;;;;;;3.63;2.08;;;;;;;18.25;57.45;99562.81;346022;28;1753;-63
2022/08/21 00:49:23;;;;;;;2.60;2.00;;;;;;;18.27;57.34;99566.19;345276;28;1124;-63
2022/08/21 00:49:37;;;;;;;2.50;2.00;;;;;;;18.28;57.54;99561.75;345113;28;1138;-64
2022/08/21 00:49:49;;;;;;;3.17;2.05;;;;;;;18.27;57.32;99560.94;346053;28;1918;-62
2022/08/21 00:50:01;;;;;;;3.17;2.08;;;;;;;18.28;57.64;99562.59;346242;28;1275;-63
2022/08/21 00:50:13;;;;;;;2.80;2.10;;;;;;;18.30;57.38;99560.72;346321;28;1201;-63
2022/08/21 00:50:37;;;;;;;2.70;2.10;;;;;;;18.27;57.02;99560.94;344974;28;1050;-63
2022/08/21 00:50:55;;;;;;;3.75;2.28;;;;;;;18.28;57.47;99561.75;344929;28;2316;-63
2022/08/21 00:51:22;;;;;;;3.40;2.10;;;;;;;18.26;57.16;99567.13;345365;28;1880;-63
2022/08/21 00:51:54;;;;;;;2.88;2.03;;;;;;;18.30;56.99;99571.22;343895;28;1127;-63
2022/08/21 00:52:13;;;;;;;4.57;1.80;;;;;;;18.29;56.81;99564.31;345753;28;1978;-63
2022/08/21 00:52:29;;;;;;;6.15;2.10;;;;;;;18.29;56.92;99569.56;344728;28;2083;-63
2022/08/21 00:52:42;;;;;;;4.70;2.20;;;;;;;18.24;57.07;99571.63;344708;28;1046;-63
2022/08/21 00:52:55;;;;;;;4.00;2.05;;;;;;;18.23;56.92;99567.34;345100;28;1106;-63
2022/08/21 00:53:09;;;;;;;4.22;2.10;;;;;;;18.23;56.90;99569.97;344024;28;2297;-63
2022/08/21 00:53:22;;;;;;;4.10;2.10;;;;;;;18.23;56.93;99564.72;344819;28;1858;-63
2022/08/21 00:53:38;;;;;;;2.42;2.00;;;;;;;18.23;57.12;99569.09;344430;28;1629;-63
2022/08/21 00:53:55;;;;;;;3.22;2.10;;;;;;;18.20;57.23;99572.78;344741;28;1236;-63
2022/08/21 00:54:11;;;;;;;4.38;2.13;;;;;;;18.20;57.01;99564.06;344207;28;2272;-63
2022/08/21 00:54:30;;;;;;;2.88;2.00;;;;;;;18.23;56.99;99569.09;343684;28;1047;-63
2022/08/21 00:54:43;;;;;;;3.80;2.15;;;;;;;18.22;57.11;99563.00;344668;28;1538;-63
2022/08/21 00:54:59;;;;;;;4.18;2.30;;;;;;;18.18;57.69;99566.78;344974;28;1250;-63
2022/08/21 00:55:13;;;;;;;4.57;2.20;;;;;;;18.15;58.03;99569.63;344717;28;1755;-63
2022/08/21 00:55:27;;;;;;;6.15;2.30;;;;;;;18.15;57.63;99567.00;343810;28;1082;-63
2022/08/21 00:55:41;;;;;;;5.18;2.17;;;;;;;18.18;57.68;99572.03;343682;28;1252;-63
2022/08/21 00:55:55;;;;;;;4.30;2.10;;;;;;;18.20;57.55;99567.53;343752;28;1320;-63
2022/08/21 00:56:10;;;;;;;4.40;2.13;;;;;;;18.21;57.75;99568.34;344161;28;2439;-63
2022/08/21 00:56:23;;;;;;;3.30;1.95;;;;;;;18.21;57.70;99561.34;344506;28;1951;-63
2022/08/21 00:56:37;;;;;;;3.22;2.00;;;;;;;18.22;57.55;99568.28;344766;28;934;-63
2022/08/21 00:57:07;;;;;;;3.55;2.10;;;;;;;18.20;57.59;99567.53;344606;28;1258;-63
2022/08/21 00:57:23;;;;;;;3.97;2.05;;;;;;;18.15;57.60;99567.00;343907;28;985;-64
2022/08/21 00:57:44;;;;;;;4.95;2.13;;;;;;;18.16;57.79;99563.41;344878;28;1245;-65
2022/08/21 00:57:58;;;;;;;4.53;2.28;;;;;;;18.17;58.01;99565.13;344791;28;1333;-65
2022/08/21 00:58:12;;;;;;;3.63;2.10;;;;;;;18.19;58.07;99568.47;343895;28;1574;-65
2022/08/21 00:58:27;;;;;;;3.97;1.98;;;;;;;18.20;57.80;99564.91;344623;28;1541;-65
2022/08/21 00:58:42;;;;;;;3.83;1.90;;;;;;;18.22;57.52;99565.63;345319;28;1289;-65
2022/08/21 00:58:57;;;;;;;3.72;1.98;;;;;;;18.23;57.30;99564.72;344890;28;1066;-65
2022/08/21 00:59:09;;;;;;;3.88;2.10;;;;;;;18.24;57.30;99571.63;344424;28;2630;-65
2022/08/21 00:59:23;;;;;;;3.00;2.00;;;;;;;18.24;57.31;99565.53;344869;28;2029;-65
2022/08/21 00:59:39;;;;;;;3.72;2.20;;;;;;;18.25;57.45;99568.09;345025;28;1037;-65
2022/08/21 00:59:55;;;;;;;5.10;2.33;;;;;;;18.27;57.28;99566.19;344078;28;2213;-65
2022/08/21 01:00:11;;;;;;;4.75;2.10;;;;;;;18.29;57.33;99564.31;344140;28;2179;-65
2022/08/21 01:00:30;;;;;;;4.20;2.03;;;;;;;18.29;57.45;99563.44;343559;28;1079;-65
2022/08/21 01:00:46;;;;;;;3.75;2.00;;;;;;;18.30;57.17;99555.44;343589;28;1095;-65
2022/08/21 01:00:59;;;;;;;4.68;2.00;;;;;;;18.32;57.19;99565.88;343945;28;1452;-65
2022/08/21 01:01:12;;;;;;;4.38;2.00;;;;;;;18.32;57.47;99560.63;344175;28;1820;-65
2022/08/21 01:01:24;;;;;;;3.55;1.98;;;;;;;18.29;57.57;99564.31;344628;28;1462;-65
2022/08/21 01:01:37;;;;;;;3.67;2.10;;;;;;;18.28;57.63;99559.97;345097;28;1085;-65
2022/08/21 01:01:50;;;;;;;3.90;2.10;;;;;;;18.28;57.47;99567.88;344054;28;1694;-65
2022/08/21 01:02:04;;;;;;;4.38;2.35;;;;;;;18.30;57.48;99565.13;344185;28;2040;-65
2022/08/21 01:02:17;;;;;;;4.05;2.40;;;;;;;18.31;57.69;99556.28;343828;28;1981;-65
2022/08/21 01:02:29;;;;;;;3.97;2.17;;;;;;;18.31;57.29;99557.16;345123;28;2898;-65
2022/08/21 01:02:42;;;;;;;3.10;2.03;;;;;;;18.32;57.36;99564.09;344950;28;1102;-65
2022/08/21 01:02:56;;;;;;;3.60;1.95;;;;;;;18.33;56.96;99560.53;345103;28;1079;-65
2022/08/21 01:03:13;;;;;;;3.90;2.10;;;;;;;18.33;57.21;99560.53;344240;28;2292;-65
2022/08/21 01:03:26;;;;;;;4.88;2.20;;;;;;;18.32;57.27;99553.56;345005;28;1083;-65
2022/08/21 01:03:38;;;;;;;5.07;2.15;;;;;;;18.33;57.33;99564.91;345225;28;1050;-65
2022/08/21 01:03:55;;;;;;;3.35;2.00;;;;;;;18.32;57.25;99561.44;344885;28;1043;-65
2022/08/21 01:04:07;;;;;;;2.90;2.03;;;;;;;18.27;57.44;99560.94;344737;28;2291;-65
2022/08/21 01:04:20;;;;;;;3.10;2.05;;;;;;;18.26;57.40;99564.50;344925;28;1980;-65
2022/08/21 01:04:32;;;;;;;4.90;2.23;;;;;;;18.25;57.46;99562.81;344881;28;1571;-65
2022/08/21 01:04:44;;;;;;;6.65;2.28;;;;;;;18.26;57.42;99559.22;344361;28;1928;-65
2022/08/21 01:04:57;;;;;;;5.80;2.20;;;;;;;18.25;57.76;99559.31;344618;28;1786;-65
2022/08/21 01:05:11;;;;;;;4.78;2.17;;;;;;;18.22;57.71;99557.75;345139;28;1196;-65
2022/08/21 01:05:24;;;;;;;3.78;2.28;;;;;;;18.20;58.15;99564.06;344891;28;1077;-65
2022/08/21 01:05:36;;;;;;;2.88;2.20;;;;;;;18.20;58.08;99558.78;345020;28;1054;-65
2022/08/21 01:05:48;;;;;;;3.03;2.10;;;;;;;18.16;57.87;99555.53;345038;28;1047;-65
2022/08/21 01:06:04;;;;;;;3.85;2.00;;;;;;;18.17;57.91;99559.84;345550;28;1986;-65
2022/08/21 01:06:16;;;;;;;3.65;2.00;;;;;;;18.13;57.86;99559.19;344884;28;1909;-65